KUIL/UIL METAR and TAF weather

Enter ICAO airport designator
Station Type Date Time Source
KUIL METAR 2020/07/03 13:53 UTC NOAA

KUIL 031353Z AUTO 19004KT 6SM BR SCT014 BKN019 OVC050 11/11 A3003 RMK AO2 RAE15B25E52 SLP168 P0000 T01110106


Station Type Date Time Source
KUIL Decoded METAR 2020/07/03 13:53 UTC NOAA

QUILLAYUTE STATE AIRPORT, WA, United States (KUIL) 47-56N 124-34W 54M
Jul 03, 2020 - 09:53 AM EDT / 2020.07.03 1353 UTC
Wind: from the S (190 degrees) at 5 MPH (4 KT):0
Visibility: 6 mile(s):0
Sky conditions: overcast
Weather: mist
Precipitation last hour: A trace
Temperature: 52.0 F (11.1 C)
Dew Point: 51.1 F (10.6 C)
Relative Humidity: 96%
Pressure (altimeter): 30.03 in. Hg (1016 hPa)
ob: KUIL 031353Z AUTO 19004KT 6SM BR SCT014 BKN019 OVC050 11/11 A3003 RMK AO2 RAE15B25E52 SLP168 P0000 T01110106
cycle: 14

Station Type Date Time Source
KUIL TAF UTC NOAA

Error!

Example: see airport list